[2024-10-23 00:00:00, 2024-10-23 23:59:59] previous next
| time | temperature | air pressure | humidity | solar radiation | wind speed |
|---|---|---|---|---|---|
| 2024-10-23 06:56:55 | 9.4 | 1026.2 | 99.0 | 9.6 | 0.0 |
| 2024-10-23 07:42:57 | 10.6 | 1026.2 | 99.0 | 32.5 | 0.0 |
| 2024-10-23 08:02:57 | 11.9 | 1026.2 | 99.0 | 29.6 | 1.1 |
| 2024-10-23 08:22:56 | 13.4 | 1026.6 | 99.0 | 29.7 | 0.0 |
| 2024-10-23 08:42:57 | 13.0 | 1026.6 | 99.0 | 31.4 | 2.0 |
| 2024-10-23 09:02:56 | 14.5 | 1026.6 | 92.0 | 33.5 | 0.7 |
| 2024-10-23 09:22:58 | 16.3 | 1026.6 | 83.0 | 39.8 | 2.2 |
| 2024-10-23 09:42:57 | 17.3 | 1026.6 | 82.0 | 47.8 | 0.0 |
| 2024-10-23 10:02:57 | 17.3 | 1026.6 | 81.0 | 37.6 | 1.7 |
| 2024-10-23 10:22:57 | 18.4 | 1026.6 | 77.0 | 99.4 | 0.8 |
| 2024-10-23 10:42:57 | 16.1 | 1026.6 | 84.0 | 66.5 | 1.0 |
| 2024-10-23 11:02:57 | 17.7 | 1026.2 | 78.0 | 47.1 | 0.3 |
| 2024-10-23 11:22:57 | 17.2 | 1026.2 | 80.0 | 215.8 | 0.3 |
| 2024-10-23 11:42:56 | 18.4 | 1025.9 | 73.0 | 245.3 | 0.0 |
| 2024-10-23 12:02:58 | 16.5 | 1025.9 | 79.0 | 253.7 | 1.1 |
| 2024-10-23 12:27:00 | 19.4 | 1025.9 | 69.0 | 253.1 | 1.0 |
| 2024-10-23 12:47:00 | 18.1 | 1025.5 | 70.0 | 276.4 | 0.4 |
| 2024-10-23 13:07:00 | 20.0 | 1025.2 | 65.0 | 250.3 | 0.0 |
| 2024-10-23 13:27:00 | 18.3 | 1024.9 | 69.0 | 246.9 | 0.0 |
| 2024-10-23 13:47:55 | 16.3 | 1025.2 | 77.0 | 0.0 | 0.0 |
| 2024-10-23 14:15:01 | 16.6 | 1024.9 | 76.0 | 207.8 | 0.0 |
| 2024-10-23 14:35:01 | 16.9 | 1024.5 | 73.0 | 79.0 | 0.0 |
| 2024-10-23 15:00:15 | 16.2 | 1024.2 | 77.0 | 156.0 | 0.0 |
CSV export: /station/IWELLEN5/data?period=20241023T000000/20241023T235959&format=csv&tz=GMT